sensor_id;sensor_type;location;lat;lon;timestamp;temperature;humidity
70321;DHT22;61127;55.826;37.046;2023-05-10T00:00:35;8.17;46.23
70321;DHT22;61127;55.826;37.046;2023-05-10T00:03:01;8.14;45.99
70321;DHT22;61127;55.826;37.046;2023-05-10T00:05:30;8.08;45.69
70321;DHT22;61127;55.826;37.046;2023-05-10T00:07:56;8.05;45.86
70321;DHT22;61127;55.826;37.046;2023-05-10T00:10:22;8.05;46.11
70321;DHT22;61127;55.826;37.046;2023-05-10T00:12:49;8.06;45.24
70321;DHT22;61127;55.826;37.046;2023-05-10T00:15:15;8.08;45.28
70321;DHT22;61127;55.826;37.046;2023-05-10T00:17:41;8.11;44.76
70321;DHT22;61127;55.826;37.046;2023-05-10T00:20:07;8.16;46.34
70321;DHT22;61127;55.826;37.046;2023-05-10T00:22:33;8.11;46.64
70321;DHT22;61127;55.826;37.046;2023-05-10T00:24:59;8.05;45.80
70321;DHT22;61127;55.826;37.046;2023-05-10T00:27:25;8.02;45.96
70321;DHT22;61127;55.826;37.046;2023-05-10T00:29:51;8.03;46.68
70321;DHT22;61127;55.826;37.046;2023-05-10T00:32:17;8.00;47.38
70321;DHT22;61127;55.826;37.046;2023-05-10T00:34:43;7.92;47.54
70321;DHT22;61127;55.826;37.046;2023-05-10T00:37:08;7.87;48.08
70321;DHT22;61127;55.826;37.046;2023-05-10T00:39:35;7.85;47.14
70321;DHT22;61127;55.826;37.046;2023-05-10T00:42:01;7.85;47.21
70321;DHT22;61127;55.826;37.046;2023-05-10T00:44:27;7.87;47.01
70321;DHT22;61127;55.826;37.046;2023-05-10T00:46:54;7.89;46.65
70321;DHT22;61127;55.826;37.046;2023-05-10T00:49:20;7.93;47.21
70321;DHT22;61127;55.826;37.046;2023-05-10T00:51:46;8.00;46.96
70321;DHT22;61127;55.826;37.046;2023-05-10T00:54:14;8.03;46.86
70321;DHT22;61127;55.826;37.046;2023-05-10T00:56:40;8.05;47.68
70321;DHT22;61127;55.826;37.046;2023-05-10T00:59:08;8.06;47.22
70321;DHT22;61127;55.826;37.046;2023-05-10T01:01:35;8.07;46.93
70321;DHT22;61127;55.826;37.046;2023-05-10T01:04:02;8.07;46.64
70321;DHT22;61127;55.826;37.046;2023-05-10T01:06:29;8.07;46.76
70321;DHT22;61127;55.826;37.046;2023-05-10T01:08:55;8.04;46.51
70321;DHT22;61127;55.826;37.046;2023-05-10T01:11:22;7.99;47.66
70321;DHT22;61127;55.826;37.046;2023-05-10T01:13:54;7.92;47.12
70321;DHT22;61127;55.826;37.046;2023-05-10T01:16:22;7.89;46.82
70321;DHT22;61127;55.826;37.046;2023-05-10T01:18:48;7.91;48.16
70321;DHT22;61127;55.826;37.046;2023-05-10T01:27:07;7.90;48.31
70321;DHT22;61127;55.826;37.046;2023-05-10T01:35:51;7.90;47.54
70321;DHT22;61127;55.826;37.046;2023-05-10T01:44:11;7.97;46.92
70321;DHT22;61127;55.826;37.046;2023-05-10T01:46:40;7.98;45.88
70321;DHT22;61127;55.826;37.046;2023-05-10T01:49:13;8.03;46.14
70321;DHT22;61127;55.826;37.046;2023-05-10T01:51:51;8.04;46.79
70321;DHT22;61127;55.826;37.046;2023-05-10T01:54:20;8.07;46.80
70321;DHT22;61127;55.826;37.046;2023-05-10T01:56:50;8.07;46.66
70321;DHT22;61127;55.826;37.046;2023-05-10T01:59:19;8.03;46.45
70321;DHT22;61127;55.826;37.046;2023-05-10T02:01:47;8.00;46.05
70321;DHT22;61127;55.826;37.046;2023-05-10T02:04:17;8.01;45.73
70321;DHT22;61127;55.826;37.046;2023-05-10T02:06:46;8.04;45.62
70321;DHT22;61127;55.826;37.046;2023-05-10T02:09:14;8.06;45.72
70321;DHT22;61127;55.826;37.046;2023-05-10T02:11:43;8.05;45.93
70321;DHT22;61127;55.826;37.046;2023-05-10T02:14:11;8.05;47.27
70321;DHT22;61127;55.826;37.046;2023-05-10T02:16:38;7.96;47.24
70321;DHT22;61127;55.826;37.046;2023-05-10T02:19:05;7.85;47.25
70321;DHT22;61127;55.826;37.046;2023-05-10T02:21:33;7.79;47.69
70321;DHT22;61127;55.826;37.046;2023-05-10T02:24:01;7.79;48.15
70321;DHT22;61127;55.826;37.046;2023-05-10T02:26:29;7.78;48.95
70321;DHT22;61127;55.826;37.046;2023-05-10T02:28:57;7.73;47.92
70321;DHT22;61127;55.826;37.046;2023-05-10T02:31:24;7.71;48.57
70321;DHT22;61127;55.826;37.046;2023-05-10T02:33:50;7.71;47.64
70321;DHT22;61127;55.826;37.046;2023-05-10T02:36:17;7.71;47.49
70321;DHT22;61127;55.826;37.046;2023-05-10T02:38:44;7.74;47.70
70321;DHT22;61127;55.826;37.046;2023-05-10T02:41:12;7.76;47.77
70321;DHT22;61127;55.826;37.046;2023-05-10T02:43:40;7.82;47.50
70321;DHT22;61127;55.826;37.046;2023-05-10T02:46:07;7.85;47.42
70321;DHT22;61127;55.826;37.046;2023-05-10T02:48:35;7.83;47.86
70321;DHT22;61127;55.826;37.046;2023-05-10T02:51:05;7.83;47.79
70321;DHT22;61127;55.826;37.046;2023-05-10T02:53:38;7.87;48.08
70321;DHT22;61127;55.826;37.046;2023-05-10T02:56:07;7.90;47.78
70321;DHT22;61127;55.826;37.046;2023-05-10T02:58:37;7.98;47.88
70321;DHT22;61127;55.826;37.046;2023-05-10T03:01:03;8.00;47.70
70321;DHT22;61127;55.826;37.046;2023-05-10T03:03:29;8.04;47.41
70321;DHT22;61127;55.826;37.046;2023-05-10T03:05:55;8.09;47.27
70321;DHT22;61127;55.826;37.046;2023-05-10T03:08:22;8.17;47.69
70321;DHT22;61127;55.826;37.046;2023-05-10T03:17:00;8.46;47.53
70321;DHT22;61127;55.826;37.046;2023-05-10T03:19:43;8.55;47.13
70321;DHT22;61127;55.826;37.046;2023-05-10T03:22:13;8.63;46.91
70321;DHT22;61127;55.826;37.046;2023-05-10T03:24:43;8.67;46.79
70321;DHT22;61127;55.826;37.046;2023-05-10T03:27:10;8.75;47.15
70321;DHT22;61127;55.826;37.046;2023-05-10T03:29:38;8.83;46.38
70321;DHT22;61127;55.826;37.046;2023-05-10T03:32:04;8.92;46.55
70321;DHT22;61127;55.826;37.046;2023-05-10T03:34:31;9.04;46.75
70321;DHT22;61127;55.826;37.046;2023-05-10T03:36:57;9.12;46.73
70321;DHT22;61127;55.826;37.046;2023-05-10T03:39:25;9.22;46.90
70321;DHT22;61127;55.826;37.046;2023-05-10T03:41:55;9.31;46.78
70321;DHT22;61127;55.826;37.046;2023-05-10T03:44:21;9.38;46.04
70321;DHT22;61127;55.826;37.046;2023-05-10T03:46:47;9.48;45.83
70321;DHT22;61127;55.826;37.046;2023-05-10T03:49:14;9.54;45.52
70321;DHT22;61127;55.826;37.046;2023-05-10T03:51:40;9.56;45.35
70321;DHT22;61127;55.826;37.046;2023-05-10T03:54:06;9.65;45.19
70321;DHT22;61127;55.826;37.046;2023-05-10T03:56:32;9.76;45.25
70321;DHT22;61127;55.826;37.046;2023-05-10T03:58:59;9.89;45.02
70321;DHT22;61127;55.826;37.046;2023-05-10T04:01:25;9.99;43.73
70321;DHT22;61127;55.826;37.046;2023-05-10T04:03:51;10.08;44.35
70321;DHT22;61127;55.826;37.046;2023-05-10T04:06:17;10.18;43.63
70321;DHT22;61127;55.826;37.046;2023-05-10T04:08:43;10.28;43.96
70321;DHT22;61127;55.826;37.046;2023-05-10T04:11:10;10.37;43.58
70321;DHT22;61127;55.826;37.046;2023-05-10T04:13:37;10.45;43.31
70321;DHT22;61127;55.826;37.046;2023-05-10T04:16:03;10.55;43.43
70321;DHT22;61127;55.826;37.046;2023-05-10T04:18:32;10.68;43.44
70321;DHT22;61127;55.826;37.046;2023-05-10T04:20:58;10.78;42.88
70321;DHT22;61127;55.826;37.046;2023-05-10T04:23:24;10.92;42.71
70321;DHT22;61127;55.826;37.046;2023-05-10T04:25:50;11.05;43.00
70321;DHT22;61127;55.826;37.046;2023-05-10T04:28:16;11.17;43.30
70321;DHT22;61127;55.826;37.046;2023-05-10T04:30:42;11.28;42.99
70321;DHT22;61127;55.826;37.046;2023-05-10T04:33:08;11.36;42.65
70321;DHT22;61127;55.826;37.046;2023-05-10T04:35:34;11.40;42.77
70321;DHT22;61127;55.826;37.046;2023-05-10T04:38:00;11.41;42.13
70321;DHT22;61127;55.826;37.046;2023-05-10T04:40:26;11.55;41.68
70321;DHT22;61127;55.826;37.046;2023-05-10T04:42:52;11.66;41.77
70321;DHT22;61127;55.826;37.046;2023-05-10T04:45:18;11.81;40.93
70321;DHT22;61127;55.826;37.046;2023-05-10T04:47:44;11.91;40.82
70321;DHT22;61127;55.826;37.046;2023-05-10T04:50:10;12.07;41.25
70321;DHT22;61127;55.826;37.046;2023-05-10T04:52:36;12.22;40.71
70321;DHT22;61127;55.826;37.046;2023-05-10T04:55:02;12.28;39.44
70321;DHT22;61127;55.826;37.046;2023-05-10T04:57:29;12.35;38.94
70321;DHT22;61127;55.826;37.046;2023-05-10T04:59:55;12.50;39.53
70321;DHT22;61127;55.826;37.046;2023-05-10T05:02:21;12.60;38.56
70321;DHT22;61127;55.826;37.046;2023-05-10T05:04:47;12.69;38.53
70321;DHT22;61127;55.826;37.046;2023-05-10T05:07:13;12.85;37.46
70321;DHT22;61127;55.826;37.046;2023-05-10T05:09:39;12.97;37.82
70321;DHT22;61127;55.826;37.046;2023-05-10T05:12:05;13.18;38.56
70321;DHT22;61127;55.826;37.046;2023-05-10T05:14:31;13.43;38.33
70321;DHT22;61127;55.826;37.046;2023-05-10T05:16:57;13.47;36.40
70321;DHT22;61127;55.826;37.046;2023-05-10T05:19:23;13.53;36.29
70321;DHT22;61127;55.826;37.046;2023-05-10T05:21:49;13.65;34.97
70321;DHT22;61127;55.826;37.046;2023-05-10T05:24:15;13.71;35.88
70321;DHT22;61127;55.826;37.046;2023-05-10T05:26:41;13.89;36.28
70321;DHT22;61127;55.826;37.046;2023-05-10T05:29:06;14.09;35.53
70321;DHT22;61127;55.826;37.046;2023-05-10T05:31:33;14.29;34.45
70321;DHT22;61127;55.826;37.046;2023-05-10T05:33:58;14.40;34.04
70321;DHT22;61127;55.826;37.046;2023-05-10T05:36:24;14.53;35.18
70321;DHT22;61127;55.826;37.046;2023-05-10T05:38:50;14.73;33.66
70321;DHT22;61127;55.826;37.046;2023-05-10T05:41:16;14.80;33.68
70321;DHT22;61127;55.826;37.046;2023-05-10T05:43:42;14.93;33.34
70321;DHT22;61127;55.826;37.046;2023-05-10T05:46:08;14.96;33.09
70321;DHT22;61127;55.826;37.046;2023-05-10T05:48:34;15.07;34.31
70321;DHT22;61127;55.826;37.046;2023-05-10T05:51:00;15.30;33.87
70321;DHT22;61127;55.826;37.046;2023-05-10T05:53:27;15.53;33.66
70321;DHT22;61127;55.826;37.046;2023-05-10T05:55:55;15.68;32.96
70321;DHT22;61127;55.826;37.046;2023-05-10T05:58:21;15.74;31.35
70321;DHT22;61127;55.826;37.046;2023-05-10T06:00:48;15.70;31.77
70321;DHT22;61127;55.826;37.046;2023-05-10T06:03:14;15.87;32.51
70321;DHT22;61127;55.826;37.046;2023-05-10T06:05:41;16.13;32.35
70321;DHT22;61127;55.826;37.046;2023-05-10T06:08:07;16.36;30.64
70321;DHT22;61127;55.826;37.046;2023-05-10T06:10:33;16.51;30.93
70321;DHT22;61127;55.826;37.046;2023-05-10T06:12:58;16.69;31.77
70321;DHT22;61127;55.826;37.046;2023-05-10T06:15:25;17.02;31.53
70321;DHT22;61127;55.826;37.046;2023-05-10T06:17:51;17.30;30.77
70321;DHT22;61127;55.826;37.046;2023-05-10T06:20:18;17.54;29.10
70321;DHT22;61127;55.826;37.046;2023-05-10T06:22:43;17.70;27.33
70321;DHT22;61127;55.826;37.046;2023-05-10T06:25:10;17.76;26.70
70321;DHT22;61127;55.826;37.046;2023-05-10T06:27:37;17.88;28.09
70321;DHT22;61127;55.826;37.046;2023-05-10T06:30:04;18.10;26.81
70321;DHT22;61127;55.826;37.046;2023-05-10T06:32:30;18.26;28.21
70321;DHT22;61127;55.826;37.046;2023-05-10T06:34:56;18.36;28.00
70321;DHT22;61127;55.826;37.046;2023-05-10T06:37:22;18.48;26.81
70321;DHT22;61127;55.826;37.046;2023-05-10T06:39:48;18.50;25.29
70321;DHT22;61127;55.826;37.046;2023-05-10T06:42:14;18.44;25.52
70321;DHT22;61127;55.826;37.046;2023-05-10T06:44:44;18.42;25.41
70321;DHT22;61127;55.826;37.046;2023-05-10T06:47:10;18.46;25.91
70321;DHT22;61127;55.826;37.046;2023-05-10T06:49:36;18.63;25.87
70321;DHT22;61127;55.826;37.046;2023-05-10T06:52:02;18.74;25.06
70321;DHT22;61127;55.826;37.046;2023-05-10T06:54:28;18.79;19.95
70321;DHT22;61127;55.826;37.046;2023-05-10T06:56:55;18.65;20.76
70321;DHT22;61127;55.826;37.046;2023-05-10T06:59:21;18.65;23.72
70321;DHT22;61127;55.826;37.046;2023-05-10T07:01:47;18.80;24.30
70321;DHT22;61127;55.826;37.046;2023-05-10T07:04:13;19.09;24.40
70321;DHT22;61127;55.826;37.046;2023-05-10T07:06:40;0.00;22.63
70321;DHT22;61127;55.826;37.046;2023-05-10T07:09:06;19.44;24.08
70321;DHT22;61127;55.826;37.046;2023-05-10T07:11:33;19.59;23.38
70321;DHT22;61127;55.826;37.046;2023-05-10T07:13:59;19.66;24.04
70321;DHT22;61127;55.826;37.046;2023-05-10T07:16:25;19.83;23.65
70321;DHT22;61127;55.826;37.046;2023-05-10T07:18:51;20.16;22.42
70321;DHT22;61127;55.826;37.046;2023-05-10T07:21:18;20.41;24.32
70321;DHT22;61127;55.826;37.046;2023-05-10T07:23:44;21.01;22.03
70321;DHT22;61127;55.826;37.046;2023-05-10T07:26:10;21.28;20.15
70321;DHT22;61127;55.826;37.046;2023-05-10T07:28:37;21.98;19.93
70321;DHT22;61127;55.826;37.046;2023-05-10T07:31:03;22.52;21.51
70321;DHT22;61127;55.826;37.046;2023-05-10T07:33:29;23.08;18.28
70321;DHT22;61127;55.826;37.046;2023-05-10T07:35:55;23.57;20.57
70321;DHT22;61127;55.826;37.046;2023-05-10T07:38:22;24.17;17.93
70321;DHT22;61127;55.826;37.046;2023-05-10T07:40:48;24.77;19.31
70321;DHT22;61127;55.826;37.046;2023-05-10T07:43:14;25.04;17.20
70321;DHT22;61127;55.826;37.046;2023-05-10T07:45:40;25.35;17.86
70321;DHT22;61127;55.826;37.046;2023-05-10T07:48:06;25.79;13.20
70321;DHT22;61127;55.826;37.046;2023-05-10T07:50:32;26.01;14.29
70321;DHT22;61127;55.826;37.046;2023-05-10T07:52:58;26.40;16.80
70321;DHT22;61127;55.826;37.046;2023-05-10T07:55:24;27.09;16.38
70321;DHT22;61127;55.826;37.046;2023-05-10T07:57:50;27.65;14.81
70321;DHT22;61127;55.826;37.046;2023-05-10T08:00:19;27.80;13.55
70321;DHT22;61127;55.826;37.046;2023-05-10T08:02:46;28.20;15.78
70321;DHT22;61127;55.826;37.046;2023-05-10T08:05:12;28.61;13.80
70321;DHT22;61127;55.826;37.046;2023-05-10T08:07:39;28.91;8.92
70321;DHT22;61127;55.826;37.046;2023-05-10T08:10:06;28.56;12.51
70321;DHT22;61127;55.826;37.046;2023-05-10T08:12:32;28.98;14.29
70321;DHT22;61127;55.826;37.046;2023-05-10T08:14:58;29.14;11.55
70321;DHT22;61127;55.826;37.046;2023-05-10T08:17:24;29.50;12.29
70321;DHT22;61127;55.826;37.046;2023-05-10T08:19:50;30.05;10.03
70321;DHT22;61127;55.826;37.046;2023-05-10T08:22:16;30.33;11.27
70321;DHT22;61127;55.826;37.046;2023-05-10T08:24:42;30.47;12.33
70321;DHT22;61127;55.826;37.046;2023-05-10T08:27:08;30.24;11.12
70321;DHT22;61127;55.826;37.046;2023-05-10T08:29:34;29.47;11.94
70321;DHT22;61127;55.826;37.046;2023-05-10T08:32:00;28.64;11.03
70321;DHT22;61127;55.826;37.046;2023-05-10T08:34:27;28.16;7.79
70321;DHT22;61127;55.826;37.046;2023-05-10T08:36:52;27.45;9.59
70321;DHT22;61127;55.826;37.046;2023-05-10T08:39:18;26.82;9.90
70321;DHT22;61127;55.826;37.046;2023-05-10T08:41:46;26.35;12.14
70321;DHT22;61127;55.826;37.046;2023-05-10T08:44:13;26.24;11.17
70321;DHT22;61127;55.826;37.046;2023-05-10T08:46:41;26.02;10.75
70321;DHT22;61127;55.826;37.046;2023-05-10T08:49:16;25.64;11.58
70321;DHT22;61127;55.826;37.046;2023-05-10T08:51:51;25.43;11.21
70321;DHT22;61127;55.826;37.046;2023-05-10T08:54:19;25.32;12.87
70321;DHT22;61127;55.826;37.046;2023-05-10T08:56:45;25.49;13.26
70321;DHT22;61127;55.826;37.046;2023-05-10T08:59:12;25.65;12.62
70321;DHT22;61127;55.826;37.046;2023-05-10T09:01:40;25.47;10.64
70321;DHT22;61127;55.826;37.046;2023-05-10T09:04:06;25.02;12.46
70321;DHT22;61127;55.826;37.046;2023-05-10T09:06:33;24.53;12.53
70321;DHT22;61127;55.826;37.046;2023-05-10T09:08:59;24.05;12.17
70321;DHT22;61127;55.826;37.046;2023-05-10T09:11:25;23.43;12.45
70321;DHT22;61127;55.826;37.046;2023-05-10T09:13:55;22.83;13.43
70321;DHT22;61127;55.826;37.046;2023-05-10T09:16:22;22.48;14.08
70321;DHT22;61127;55.826;37.046;2023-05-10T09:18:49;22.41;14.53
70321;DHT22;61127;55.826;37.046;2023-05-10T09:21:15;22.48;14.97
70321;DHT22;61127;55.826;37.046;2023-05-10T09:23:45;22.39;12.74
70321;DHT22;61127;55.826;37.046;2023-05-10T09:26:12;22.44;14.65
70321;DHT22;61127;55.826;37.046;2023-05-10T09:28:55;22.92;15.57
70321;DHT22;61127;55.826;37.046;2023-05-10T09:31:21;23.28;14.94
70321;DHT22;61127;55.826;37.046;2023-05-10T09:33:49;23.68;15.08
70321;DHT22;61127;55.826;37.046;2023-05-10T09:36:15;24.03;14.27
70321;DHT22;61127;55.826;37.046;2023-05-10T09:38:51;24.19;14.29
70321;DHT22;61127;55.826;37.046;2023-05-10T09:41:19;24.50;14.05
70321;DHT22;61127;55.826;37.046;2023-05-10T09:43:46;24.91;14.23
70321;DHT22;61127;55.826;37.046;2023-05-10T09:46:12;25.06;13.36
70321;DHT22;61127;55.826;37.046;2023-05-10T09:48:47;24.72;12.89
70321;DHT22;61127;55.826;37.046;2023-05-10T09:51:20;24.58;12.05
70321;DHT22;61127;55.826;37.046;2023-05-10T09:53:46;24.39;13.25
70321;DHT22;61127;55.826;37.046;2023-05-10T09:56:12;24.51;14.42
70321;DHT22;61127;55.826;37.046;2023-05-10T09:58:39;24.55;13.47
70321;DHT22;61127;55.826;37.046;2023-05-10T10:01:11;24.75;13.01
70321;DHT22;61127;55.826;37.046;2023-05-10T10:03:43;24.68;11.76
70321;DHT22;61127;55.826;37.046;2023-05-10T10:06:10;24.58;12.95
70321;DHT22;61127;55.826;37.046;2023-05-10T10:08:36;24.72;12.97
70321;DHT22;61127;55.826;37.046;2023-05-10T10:11:02;24.69;13.04
70321;DHT22;61127;55.826;37.046;2023-05-10T10:13:28;24.71;13.29
70321;DHT22;61127;55.826;37.046;2023-05-10T10:15:55;24.74;13.60
70321;DHT22;61127;55.826;37.046;2023-05-10T10:18:21;24.72;13.84
70321;DHT22;61127;55.826;37.046;2023-05-10T10:20:54;24.68;14.20
70321;DHT22;61127;55.826;37.046;2023-05-10T10:23:20;24.61;14.22
70321;DHT22;61127;55.826;37.046;2023-05-10T10:25:46;24.53;14.36
70321;DHT22;61127;55.826;37.046;2023-05-10T10:34:05;24.09;14.79
70321;DHT22;61127;55.826;37.046;2023-05-10T10:36:39;24.04;14.40
70321;DHT22;61127;55.826;37.046;2023-05-10T10:39:09;24.04;13.90
70321;DHT22;61127;55.826;37.046;2023-05-10T10:41:40;24.09;14.17
70321;DHT22;61127;55.826;37.046;2023-05-10T10:49:32;25.69;13.74
70321;DHT22;61127;55.826;37.046;2023-05-10T10:57:24;27.76;11.72
70321;DHT22;61127;55.826;37.046;2023-05-10T11:00:30;27.84;9.16
70321;DHT22;61127;55.826;37.046;2023-05-10T11:03:13;27.40;11.99
70321;DHT22;61127;55.826;37.046;2023-05-10T11:05:47;27.15;11.66
70321;DHT22;61127;55.826;37.046;2023-05-10T11:16:30;25.04;12.96
70321;DHT22;61127;55.826;37.046;2023-05-10T11:19:11;24.35;13.72
70321;DHT22;61127;55.826;37.046;2023-05-10T11:24:16;23.39;13.94
70321;DHT22;61127;55.826;37.046;2023-05-10T11:26:42;22.91;14.47
70321;DHT22;61127;55.826;37.046;2023-05-10T11:29:13;22.55;14.48
70321;DHT22;61127;55.826;37.046;2023-05-10T11:31:45;22.24;14.84
70321;DHT22;61127;55.826;37.046;2023-05-10T11:34:26;22.13;15.09
70321;DHT22;61127;55.826;37.046;2023-05-10T11:36:53;22.13;14.91
70321;DHT22;61127;55.826;37.046;2023-05-10T11:39:20;22.18;14.96
70321;DHT22;61127;55.826;37.046;2023-05-10T11:41:49;22.26;14.84
70321;DHT22;61127;55.826;37.046;2023-05-10T11:44:16;22.43;15.24
70321;DHT22;61127;55.826;37.046;2023-05-10T11:46:42;22.52;14.99
70321;DHT22;61127;55.826;37.046;2023-05-10T11:49:08;22.52;15.25
70321;DHT22;61127;55.826;37.046;2023-05-10T11:51:35;22.21;15.13
70321;DHT22;61127;55.826;37.046;2023-05-10T11:54:08;22.11;15.48
70321;DHT22;61127;55.826;37.046;2023-05-10T11:56:35;22.02;15.14
70321;DHT22;61127;55.826;37.046;2023-05-10T11:59:01;21.85;15.63
70321;DHT22;61127;55.826;37.046;2023-05-10T12:01:28;21.66;15.74
70321;DHT22;61127;55.826;37.046;2023-05-10T12:03:55;21.45;15.59
70321;DHT22;61127;55.826;37.046;2023-05-10T12:06:32;21.51;15.57
70321;DHT22;61127;55.826;37.046;2023-05-10T12:09:08;21.77;15.83
70321;DHT22;61127;55.826;37.046;2023-05-10T12:11:40;22.31;15.87
70321;DHT22;61127;55.826;37.046;2023-05-10T12:14:07;23.17;14.40
70321;DHT22;61127;55.826;37.046;2023-05-10T12:16:33;23.84;15.16
70321;DHT22;61127;55.826;37.046;2023-05-10T12:19:00;24.31;15.14
70321;DHT22;61127;55.826;37.046;2023-05-10T12:21:28;24.62;14.52
70321;DHT22;61127;55.826;37.046;2023-05-10T12:23:59;24.48;13.40
70321;DHT22;61127;55.826;37.046;2023-05-10T12:26:26;24.59;14.67
70321;DHT22;61127;55.826;37.046;2023-05-10T12:28:54;24.80;14.37
70321;DHT22;61127;55.826;37.046;2023-05-10T12:31:20;24.44;13.17
70321;DHT22;61127;55.826;37.046;2023-05-10T12:33:47;24.11;14.17
70321;DHT22;61127;55.826;37.046;2023-05-10T12:36:16;23.82;14.87
70321;DHT22;61127;55.826;37.046;2023-05-10T12:38:45;23.60;14.81
70321;DHT22;61127;55.826;37.046;2023-05-10T12:41:17;23.31;14.37
70321;DHT22;61127;55.826;37.046;2023-05-10T12:43:44;23.13;14.07
70321;DHT22;61127;55.826;37.046;2023-05-10T12:46:16;22.98;15.16
70321;DHT22;61127;55.826;37.046;2023-05-10T12:48:44;23.00;15.57
70321;DHT22;61127;55.826;37.046;2023-05-10T12:51:11;23.09;15.72
70321;DHT22;61127;55.826;37.046;2023-05-10T12:53:39;23.18;15.81
70321;DHT22;61127;55.826;37.046;2023-05-10T12:56:06;23.21;14.95
70321;DHT22;61127;55.826;37.046;2023-05-10T12:58:35;23.12;15.73
70321;DHT22;61127;55.826;37.046;2023-05-10T13:01:01;23.23;16.39
70321;DHT22;61127;55.826;37.046;2023-05-10T13:03:27;23.34;15.66
70321;DHT22;61127;55.826;37.046;2023-05-10T13:05:53;23.39;15.19
70321;DHT22;61127;55.826;37.046;2023-05-10T13:08:19;23.23;15.45
70321;DHT22;61127;55.826;37.046;2023-05-10T13:10:45;23.03;15.41
70321;DHT22;61127;55.826;37.046;2023-05-10T13:13:11;23.16;15.31
70321;DHT22;61127;55.826;37.046;2023-05-10T13:15:37;23.31;15.25
70321;DHT22;61127;55.826;37.046;2023-05-10T13:18:03;23.28;15.05
70321;DHT22;61127;55.826;37.046;2023-05-10T13:20:30;23.15;15.76
70321;DHT22;61127;55.826;37.046;2023-05-10T13:22:56;23.17;15.84
70321;DHT22;61127;55.826;37.046;2023-05-10T13:25:22;23.18;15.48
70321;DHT22;61127;55.826;37.046;2023-05-10T13:27:48;23.18;15.78
70321;DHT22;61127;55.826;37.046;2023-05-10T13:30:13;23.23;15.72
70321;DHT22;61127;55.826;37.046;2023-05-10T13:32:40;23.28;15.59
70321;DHT22;61127;55.826;37.046;2023-05-10T13:35:06;23.25;15.35
70321;DHT22;61127;55.826;37.046;2023-05-10T13:37:32;23.37;15.67
70321;DHT22;61127;55.826;37.046;2023-05-10T13:40:04;23.65;15.69
70321;DHT22;61127;55.826;37.046;2023-05-10T13:42:31;23.89;15.76
70321;DHT22;61127;55.826;37.046;2023-05-10T13:44:59;24.17;15.23
70321;DHT22;61127;55.826;37.046;2023-05-10T13:47:26;24.27;15.64
70321;DHT22;61127;55.826;37.046;2023-05-10T13:49:52;24.20;14.91
70321;DHT22;61127;55.826;37.046;2023-05-10T13:52:18;24.01;15.17
70321;DHT22;61127;55.826;37.046;2023-05-10T13:54:44;23.94;15.66
70321;DHT22;61127;55.826;37.046;2023-05-10T13:57:10;23.89;15.14
70321;DHT22;61127;55.826;37.046;2023-05-10T13:59:38;23.71;14.05
70321;DHT22;61127;55.826;37.046;2023-05-10T14:02:04;23.38;13.93
70321;DHT22;61127;55.826;37.046;2023-05-10T14:04:30;22.99;15.22
70321;DHT22;61127;55.826;37.046;2023-05-10T14:06:56;22.86;15.51
70321;DHT22;61127;55.826;37.046;2023-05-10T14:09:22;22.78;16.12
70321;DHT22;61127;55.826;37.046;2023-05-10T14:11:48;22.63;15.61
70321;DHT22;61127;55.826;37.046;2023-05-10T14:14:14;22.50;16.20
70321;DHT22;61127;55.826;37.046;2023-05-10T14:16:44;22.37;16.57
70321;DHT22;61127;55.826;37.046;2023-05-10T14:19:10;22.26;16.16
70321;DHT22;61127;55.826;37.046;2023-05-10T14:21:36;22.09;16.55
70321;DHT22;61127;55.826;37.046;2023-05-10T14:24:02;21.99;16.35
70321;DHT22;61127;55.826;37.046;2023-05-10T14:26:28;21.81;16.60
70321;DHT22;61127;55.826;37.046;2023-05-10T14:28:54;21.69;16.93
70321;DHT22;61127;55.826;37.046;2023-05-10T14:31:20;21.57;16.70
70321;DHT22;61127;55.826;37.046;2023-05-10T14:33:47;21.35;16.96
70321;DHT22;61127;55.826;37.046;2023-05-10T14:36:13;21.25;17.30
70321;DHT22;61127;55.826;37.046;2023-05-10T14:38:40;21.10;17.58
70321;DHT22;61127;55.826;37.046;2023-05-10T14:41:06;20.95;17.77
70321;DHT22;61127;55.826;37.046;2023-05-10T14:43:32;20.78;17.34
70321;DHT22;61127;55.826;37.046;2023-05-10T14:45:58;20.56;17.58
70321;DHT22;61127;55.826;37.046;2023-05-10T14:48:24;20.40;17.70
70321;DHT22;61127;55.826;37.046;2023-05-10T14:50:50;20.26;17.92
70321;DHT22;61127;55.826;37.046;2023-05-10T14:53:18;20.18;18.12
70321;DHT22;61127;55.826;37.046;2023-05-10T14:55:44;20.16;18.45
70321;DHT22;61127;55.826;37.046;2023-05-10T14:58:10;20.15;18.22
70321;DHT22;61127;55.826;37.046;2023-05-10T15:00:36;20.11;18.19
70321;DHT22;61127;55.826;37.046;2023-05-10T15:03:01;20.09;18.15
70321;DHT22;61127;55.826;37.046;2023-05-10T15:05:27;20.01;18.06
70321;DHT22;61127;55.826;37.046;2023-05-10T15:07:53;19.91;18.26
70321;DHT22;61127;55.826;37.046;2023-05-10T15:10:20;19.85;18.44
70321;DHT22;61127;55.826;37.046;2023-05-10T15:12:45;19.83;19.22
70321;DHT22;61127;55.826;37.046;2023-05-10T15:15:11;19.77;18.64
70321;DHT22;61127;55.826;37.046;2023-05-10T15:17:37;19.70;18.66
70321;DHT22;61127;55.826;37.046;2023-05-10T15:20:04;19.61;19.31
70321;DHT22;61127;55.826;37.046;2023-05-10T15:22:30;19.60;19.53
70321;DHT22;61127;55.826;37.046;2023-05-10T15:24:58;19.57;20.34
70321;DHT22;61127;55.826;37.046;2023-05-10T15:27:25;19.51;20.28
70321;DHT22;61127;55.826;37.046;2023-05-10T15:29:53;19.47;20.52
70321;DHT22;61127;55.826;37.046;2023-05-10T15:32:19;19.40;21.43
70321;DHT22;61127;55.826;37.046;2023-05-10T15:34:45;19.38;21.37
70321;DHT22;61127;55.826;37.046;2023-05-10T15:37:11;19.32;21.83
70321;DHT22;61127;55.826;37.046;2023-05-10T15:39:37;19.26;20.94
70321;DHT22;61127;55.826;37.046;2023-05-10T15:42:03;19.17;21.16
70321;DHT22;61127;55.826;37.046;2023-05-10T15:44:29;19.10;21.16
70321;DHT22;61127;55.826;37.046;2023-05-10T15:46:55;19.06;22.24
70321;DHT22;61127;55.826;37.046;2023-05-10T15:49:21;18.94;21.34
70321;DHT22;61127;55.826;37.046;2023-05-10T15:51:47;18.88;21.74
70321;DHT22;61127;55.826;37.046;2023-05-10T15:54:13;18.81;22.06
70321;DHT22;61127;55.826;37.046;2023-05-10T15:56:39;18.72;22.21
70321;DHT22;61127;55.826;37.046;2023-05-10T15:59:05;18.63;22.37
70321;DHT22;61127;55.826;37.046;2023-05-10T16:01:33;18.54;21.87
70321;DHT22;61127;55.826;37.046;2023-05-10T16:03:59;18.46;22.09
70321;DHT22;61127;55.826;37.046;2023-05-10T16:06:26;18.37;22.72
70321;DHT22;61127;55.826;37.046;2023-05-10T16:08:51;18.27;22.90
70321;DHT22;61127;55.826;37.046;2023-05-10T16:11:17;18.21;22.80